createdAt,value
2023-04-09T00:02:06.606Z,28.53
2023-04-09T00:04:33.697Z,27.50
2023-04-09T00:07:01.069Z,27.60
2023-04-09T00:09:28.142Z,28.20
2023-04-09T00:11:56.394Z,29.50
2023-04-09T00:14:23.472Z,27.97
2023-04-09T00:16:51.042Z,27.80
2023-04-09T00:19:18.118Z,28.27
2023-04-09T00:21:45.273Z,27.47
2023-04-09T00:24:12.717Z,28.53
2023-04-09T00:26:40.032Z,27.03
2023-04-09T00:29:07.122Z,26.83
2023-04-09T00:31:34.311Z,25.53
2023-04-09T00:34:01.619Z,26.80
2023-04-09T00:36:28.777Z,28.30
2023-04-09T00:38:56.139Z,27.30
2023-04-09T00:41:23.251Z,27.97
2023-04-09T00:43:50.465Z,28.57
2023-04-09T00:46:18.583Z,28.20
2023-04-09T00:48:45.823Z,26.87
2023-04-09T00:51:12.924Z,29.63
2023-04-09T00:53:40.803Z,26.77
2023-04-09T00:56:08.348Z,28.27
2023-04-09T00:58:35.882Z,27.53
2023-04-09T01:01:03.463Z,27.13
2023-04-09T01:03:30.799Z,28.30
2023-04-09T01:06:18.255Z,27.47
2023-04-09T01:09:02.351Z,29.57
2023-04-09T01:11:47.214Z,24.73
2023-04-09T01:14:20.476Z,26.30
2023-04-09T01:17:05.289Z,25.97
2023-04-09T01:19:46.366Z,26.60
2023-04-09T01:22:57.976Z,24.60
2023-04-09T01:26:11.295Z,24.27
2023-04-09T01:28:51.900Z,24.63
2023-04-09T01:31:20.932Z,26.50
2023-04-09T01:33:48.211Z,27.50
2023-04-09T01:36:15.771Z,26.13
2023-04-09T01:38:45.477Z,23.30
2023-04-09T01:41:18.713Z,26.23
2023-04-09T01:43:46.637Z,25.57
2023-04-09T01:46:14.264Z,25.30
2023-04-09T01:48:42.339Z,27.97
2023-04-09T01:51:09.851Z,25.87
2023-04-09T01:53:36.905Z,27.90
2023-04-09T01:56:04.391Z,24.80
2023-04-09T01:58:34.185Z,30.33
2023-04-09T02:01:14.660Z,25.57
2023-04-09T02:03:48.019Z,25.87
2023-04-09T02:06:42.884Z,25.87
2023-04-09T02:09:10.552Z,24.27
2023-04-09T02:11:41.063Z,27.03
2023-04-09T02:14:11.287Z,25.53
2023-04-09T02:16:40.294Z,26.00
2023-04-09T02:19:07.428Z,25.40
2023-04-09T02:21:34.802Z,29.37
2023-04-09T02:24:01.919Z,28.10
2023-04-09T02:26:29.016Z,27.00
2023-04-09T02:28:56.122Z,27.07
2023-04-09T02:31:23.271Z,24.30
2023-04-09T02:33:51.031Z,26.47
2023-04-09T02:36:18.129Z,25.80
2023-04-09T02:38:45.614Z,24.73
2023-04-09T02:41:12.820Z,26.43
2023-04-09T02:43:39.930Z,25.80
2023-04-09T02:46:07.827Z,24.13
2023-04-09T02:48:35.787Z,25.10
2023-04-09T02:51:06.386Z,23.60
2023-04-09T02:53:33.671Z,24.53
2023-04-09T02:56:00.798Z,25.40
2023-04-09T02:58:27.905Z,25.93
2023-04-09T03:00:55.014Z,26.00
2023-04-09T03:03:22.283Z,24.90
2023-04-09T03:05:49.535Z,24.20
2023-04-09T03:08:16.719Z,26.43
2023-04-09T03:10:43.856Z,26.60
2023-04-09T03:13:11.036Z,26.53
2023-04-09T03:15:38.116Z,23.17
2023-04-09T03:18:05.262Z,25.13
2023-04-09T03:20:32.400Z,27.47
2023-04-09T03:22:59.480Z,27.30
2023-04-09T03:25:34.862Z,24.63
2023-04-09T03:28:10.736Z,27.20
2023-04-09T03:30:51.373Z,26.70
2023-04-09T03:33:19.657Z,25.63
2023-04-09T03:35:52.584Z,28.93
2023-04-09T03:38:29.680Z,26.60
2023-04-09T03:40:59.225Z,26.60
2023-04-09T03:43:27.537Z,26.17
2023-04-09T03:45:54.988Z,27.10
2023-04-09T03:48:26.028Z,26.13
2023-04-09T03:50:53.983Z,28.10
2023-04-09T03:53:31.775Z,25.40
2023-04-09T03:56:04.045Z,24.70
2023-04-09T03:58:32.580Z,25.33
2023-04-09T04:01:01.466Z,26.40
2023-04-09T04:03:38.060Z,28.00
2023-04-09T04:06:21.263Z,24.10
2023-04-09T04:09:17.940Z,23.50
2023-04-09T04:11:51.495Z,23.90
2023-04-09T04:14:22.742Z,22.30
2023-04-09T04:16:56.674Z,23.40
2023-04-09T04:19:28.525Z,26.53
2023-04-09T04:21:56.786Z,25.60
2023-04-09T04:24:24.402Z,24.93
2023-04-09T04:26:51.802Z,25.10
2023-04-09T04:29:23.661Z,24.83
2023-04-09T04:31:56.713Z,25.20
2023-04-09T04:34:27.016Z,23.60
2023-04-09T04:37:01.927Z,23.40
2023-04-09T04:39:32.193Z,24.77
2023-04-09T04:42:04.185Z,24.70
2023-04-09T04:44:31.420Z,22.80
2023-04-09T04:47:27.865Z,24.27
2023-04-09T04:49:55.148Z,23.73
2023-04-09T04:52:22.734Z,25.10
2023-04-09T04:54:53.293Z,24.70
2023-04-09T04:57:23.474Z,24.97
2023-04-09T04:59:50.614Z,24.43
2023-04-09T05:02:18.599Z,24.27
2023-04-09T05:05:21.680Z,24.00
2023-04-09T05:07:53.467Z,22.50
2023-04-09T05:10:21.899Z,23.07
2023-04-09T05:12:49.855Z,24.63
2023-04-09T05:15:30.862Z,22.53
2023-04-09T05:17:58.390Z,25.00
2023-04-09T05:20:27.815Z,22.80
2023-04-09T05:23:10.766Z,24.60
2023-04-09T05:25:41.895Z,25.20
2023-04-09T05:28:19.470Z,24.13
2023-04-09T05:30:50.567Z,24.60
2023-04-09T05:33:18.907Z,22.93
2023-04-09T05:35:46.194Z,22.63
2023-04-09T05:38:14.154Z,24.00
2023-04-09T05:40:45.782Z,21.70
2023-04-09T05:43:13.940Z,23.47
2023-04-09T05:45:43.751Z,21.60
2023-04-09T05:48:11.294Z,21.30
2023-04-09T05:50:51.570Z,22.20
2023-04-09T05:53:24.193Z,21.70
2023-04-09T05:55:51.396Z,22.00
2023-04-09T05:58:21.859Z,21.93
2023-04-09T06:00:51.744Z,21.93
2023-04-09T06:03:19.589Z,22.07
2023-04-09T06:05:48.329Z,21.27
2023-04-09T06:08:15.766Z,21.90
2023-04-09T06:10:43.039Z,23.50
2023-04-09T06:13:10.758Z,23.30
2023-04-09T06:15:41.808Z,22.50
2023-04-09T06:18:09.087Z,22.73
2023-04-09T06:20:36.251Z,24.70
2023-04-09T06:23:03.557Z,24.43
2023-04-09T06:25:30.728Z,23.67
2023-04-09T06:27:57.788Z,23.73
2023-04-09T06:30:25.022Z,24.70
2023-04-09T06:32:54.980Z,24.90
2023-04-09T06:35:23.408Z,24.20
2023-04-09T06:37:50.503Z,23.37
2023-04-09T06:40:18.461Z,24.23
2023-04-09T06:42:46.749Z,23.67
2023-04-09T06:45:22.348Z,24.80
2023-04-09T06:47:50.018Z,23.40
2023-04-09T06:50:17.262Z,24.73
2023-04-09T06:52:44.297Z,23.67
2023-04-09T06:55:11.653Z,25.30
2023-04-09T06:57:43.952Z,22.77
2023-04-09T07:00:12.444Z,23.13
2023-04-09T07:02:40.197Z,25.13
2023-04-09T07:05:08.310Z,26.07
2023-04-09T07:07:41.698Z,25.87
2023-04-09T07:10:12.600Z,26.17
2023-04-09T07:12:40.466Z,25.73
2023-04-09T07:15:08.383Z,24.77
2023-04-09T07:17:36.157Z,23.30
2023-04-09T07:20:04.450Z,27.10
2023-04-09T07:22:50.215Z,25.13
2023-04-09T07:25:17.682Z,25.90
2023-04-09T07:27:44.864Z,25.43
2023-04-09T07:30:12.274Z,27.40
2023-04-09T07:32:58.867Z,25.53
2023-04-09T07:35:56.412Z,26.00
2023-04-09T07:38:23.793Z,25.27
2023-04-09T07:40:51.402Z,26.20
2023-04-09T07:43:19.791Z,27.23
2023-04-09T07:45:51.835Z,25.23
2023-04-09T07:48:18.976Z,26.13
2023-04-09T07:50:46.148Z,26.17
2023-04-09T07:53:13.339Z,25.60
2023-04-09T07:55:42.404Z,23.10
2023-04-09T07:58:09.663Z,23.80
2023-04-09T08:00:36.806Z,26.17
2023-04-09T08:03:04.460Z,24.07
2023-04-09T08:05:31.819Z,22.20
2023-04-09T08:08:05.909Z,23.17
2023-04-09T08:10:35.668Z,25.50
2023-04-09T08:13:03.112Z,26.57
2023-04-09T08:15:30.402Z,25.50
2023-04-09T08:17:57.760Z,26.40
2023-04-09T08:20:25.349Z,26.27
2023-04-09T08:22:52.611Z,26.43
2023-04-09T08:25:19.884Z,28.03
2023-04-09T08:27:47.070Z,23.70
2023-04-09T08:30:14.496Z,22.40
2023-04-09T08:32:42.258Z,20.77
2023-04-09T08:35:10.243Z,21.97
2023-04-09T08:37:37.280Z,25.27
2023-04-09T08:40:04.824Z,23.33
2023-04-09T08:42:34.518Z,23.23
2023-04-09T08:45:05.515Z,24.33
2023-04-09T08:47:35.286Z,22.57
2023-04-09T08:50:02.608Z,20.80
2023-04-09T08:52:36.327Z,21.50
2023-04-09T08:55:07.389Z,22.87
2023-04-09T08:57:41.588Z,23.30
2023-04-09T09:00:09.399Z,25.03
2023-04-09T09:02:37.090Z,20.57
2023-04-09T09:05:04.504Z,20.20
2023-04-09T09:07:32.301Z,20.00
2023-04-09T09:10:03.750Z,19.30
2023-04-09T09:12:40.454Z,18.40
2023-04-09T09:15:31.044Z,19.07
2023-04-09T09:18:00.905Z,17.50
2023-04-09T09:20:29.254Z,20.80
2023-04-09T09:22:57.057Z,22.43
2023-04-09T09:25:26.036Z,23.00
2023-04-09T09:27:54.576Z,24.40
2023-04-09T09:30:27.911Z,23.30
2023-04-09T09:33:10.679Z,23.83
2023-04-09T09:35:57.877Z,24.50
2023-04-09T09:38:25.133Z,23.50
2023-04-09T09:40:52.703Z,24.30
2023-04-09T09:43:19.968Z,23.57
2023-04-09T09:45:48.603Z,25.20
2023-04-09T09:48:16.160Z,27.00
2023-04-09T09:50:46.284Z,24.43
2023-04-09T09:53:14.900Z,22.57
2023-04-09T09:55:46.519Z,23.50
2023-04-09T09:58:22.236Z,23.60
2023-04-09T10:00:52.882Z,24.60
2023-04-09T10:03:32.212Z,22.53
2023-04-09T10:06:01.642Z,23.47
2023-04-09T10:08:30.289Z,24.80
2023-04-09T10:10:57.452Z,23.17
2023-04-09T10:13:46.307Z,23.10
2023-04-09T10:16:14.432Z,21.80
2023-04-09T10:18:43.719Z,22.30
2023-04-09T10:21:44.033Z,22.30
2023-04-09T10:24:11.703Z,22.73
2023-04-09T10:26:42.436Z,23.10
2023-04-09T10:29:13.978Z,23.70
2023-04-09T10:32:07.171Z,24.90
2023-04-09T10:34:43.894Z,23.57
2023-04-09T10:37:25.568Z,23.30
2023-04-09T10:39:54.080Z,24.20
2023-04-09T10:42:43.174Z,23.90
2023-04-09T10:45:14.111Z,25.60
2023-04-09T10:47:43.890Z,25.67
2023-04-09T10:50:28.106Z,26.17
2023-04-09T10:52:57.501Z,25.20
2023-04-09T10:55:41.297Z,24.63
2023-04-09T10:58:13.779Z,25.53
2023-04-09T11:00:46.572Z,24.27
2023-04-09T11:03:31.510Z,25.93
2023-04-09T11:06:10.239Z,24.03
2023-04-09T11:08:38.809Z,26.97
2023-04-09T11:11:06.521Z,27.00
2023-04-09T11:13:34.577Z,24.80
2023-04-09T11:16:06.773Z,24.90
2023-04-09T11:18:37.035Z,25.23
2023-04-09T11:21:04.583Z,24.13
2023-04-09T11:23:33.298Z,24.73
2023-04-09T11:26:01.824Z,24.63
2023-04-09T11:28:28.971Z,22.00
2023-04-09T11:30:55.993Z,23.70
2023-04-09T11:33:23.216Z,23.77
2023-04-09T11:35:51.544Z,24.43
2023-04-09T11:38:19.737Z,24.50
2023-04-09T11:40:51.335Z,25.47
2023-04-09T11:43:21.002Z,24.93
2023-04-09T11:45:48.958Z,23.73
2023-04-09T11:48:21.925Z,23.83
2023-04-09T11:50:49.196Z,24.80
2023-04-09T11:53:23.769Z,24.33
2023-04-09T11:55:58.361Z,23.97
2023-04-09T11:58:26.751Z,23.40
2023-04-09T12:01:00.114Z,24.50
2023-04-09T12:03:33.239Z,23.97
2023-04-09T12:06:04.463Z,21.90
2023-04-09T12:08:37.195Z,23.90
2023-04-09T12:11:16.159Z,21.57
2023-04-09T12:13:48.030Z,21.47
2023-04-09T12:16:20.889Z,21.60
2023-04-09T12:18:50.667Z,22.20
2023-04-09T12:21:19.359Z,22.83
2023-04-09T12:23:46.665Z,22.00
2023-04-09T12:26:16.689Z,21.87
2023-04-09T12:28:44.203Z,23.00
2023-04-09T12:31:12.149Z,20.27
2023-04-09T12:33:40.447Z,19.30
2023-04-09T12:36:13.424Z,19.63
2023-04-09T12:38:43.765Z,20.70
2023-04-09T12:41:13.706Z,19.80
2023-04-09T12:43:42.759Z,17.33
2023-04-09T12:46:14.302Z,17.73
2023-04-09T12:48:44.057Z,18.20
2023-04-09T12:51:19.477Z,18.90
2023-04-09T12:53:49.698Z,20.03
2023-04-09T12:56:16.860Z,22.30
2023-04-09T12:58:44.050Z,20.40
2023-04-09T13:01:13.475Z,21.13
2023-04-09T13:03:43.352Z,20.73
2023-04-09T13:06:10.482Z,17.83
2023-04-09T13:08:37.737Z,18.00
2023-04-09T13:11:05.237Z,16.07
2023-04-09T13:13:32.436Z,13.30
2023-04-09T13:15:59.755Z,15.70
2023-04-09T13:18:28.188Z,16.10
2023-04-09T13:20:55.547Z,17.63
2023-04-09T13:23:22.696Z,16.60
2023-04-09T13:25:49.885Z,17.67
2023-04-09T13:28:17.080Z,19.97
2023-04-09T13:30:44.486Z,18.70
2023-04-09T13:33:11.710Z,18.37
2023-04-09T13:35:38.869Z,17.57
2023-04-09T13:38:06.114Z,17.20
2023-04-09T13:40:33.443Z,16.20
2023-04-09T13:43:01.107Z,19.07
2023-04-09T13:45:28.394Z,16.83
2023-04-09T13:47:55.579Z,16.57
2023-04-09T13:50:22.739Z,18.10
2023-04-09T13:52:49.970Z,17.47
2023-04-09T13:55:17.256Z,18.20
2023-04-09T13:57:44.326Z,17.23
2023-04-09T14:00:12.003Z,15.83
2023-04-09T14:02:39.238Z,17.50
2023-04-09T14:05:07.007Z,17.20
2023-04-09T14:07:34.148Z,19.93
2023-04-09T14:10:01.393Z,20.30
2023-04-09T14:12:28.535Z,20.33
2023-04-09T14:14:58.139Z,18.67
2023-04-09T14:17:26.551Z,18.10
2023-04-09T14:19:53.762Z,16.30
2023-04-09T14:22:21.041Z,16.07
2023-04-09T14:24:48.084Z,16.73
2023-04-09T14:27:15.745Z,16.63
2023-04-09T14:29:43.170Z,16.30
2023-04-09T14:32:10.408Z,17.00
2023-04-09T14:34:37.445Z,16.47
2023-04-09T14:37:04.520Z,15.50
2023-04-09T14:39:31.849Z,14.10
2023-04-09T14:41:59.252Z,15.93
2023-04-09T14:44:27.388Z,14.67
2023-04-09T14:46:55.306Z,14.40
2023-04-09T14:49:28.529Z,15.13
2023-04-09T14:51:57.044Z,16.60
2023-04-09T14:54:25.848Z,13.20
2023-04-09T14:56:53.448Z,15.80
2023-04-09T14:59:20.901Z,15.47
2023-04-09T15:01:48.118Z,13.80
2023-04-09T15:04:15.756Z,16.53
2023-04-09T15:06:43.057Z,14.40
2023-04-09T15:09:10.358Z,14.40
2023-04-09T15:11:37.534Z,13.73
2023-04-09T15:14:04.892Z,13.30
2023-04-09T15:16:37.433Z,12.53
2023-04-09T15:19:04.722Z,12.63
2023-04-09T15:21:31.907Z,11.33
2023-04-09T15:23:59.159Z,11.60
2023-04-09T15:26:27.510Z,8.80
2023-04-09T15:29:08.445Z,7.93
2023-04-09T15:31:36.322Z,8.00
2023-04-09T15:34:03.615Z,8.43
2023-04-09T15:36:31.591Z,7.20
2023-04-09T15:38:58.860Z,8.10
2023-04-09T15:41:26.989Z,7.27
2023-04-09T15:43:54.107Z,6.87
2023-04-09T15:46:21.331Z,7.50
2023-04-09T15:48:48.611Z,7.83
2023-04-09T15:51:16.845Z,9.30
2023-04-09T15:53:44.061Z,9.37
2023-04-09T15:56:17.225Z,8.93
2023-04-09T15:58:44.570Z,8.40
2023-04-09T16:01:12.888Z,9.40
2023-04-09T16:03:41.304Z,10.00
2023-04-09T16:06:14.795Z,9.97
2023-04-09T16:08:45.172Z,8.97
2023-04-09T16:11:12.905Z,9.10
2023-04-09T16:13:40.203Z,9.80
2023-04-09T16:16:07.964Z,8.40
2023-04-09T16:18:35.623Z,8.80
2023-04-09T16:21:02.830Z,10.80
2023-04-09T16:23:30.825Z,12.20
2023-04-09T16:25:58.189Z,10.67
2023-04-09T16:28:26.638Z,11.33
2023-04-09T16:30:54.104Z,12.23
2023-04-09T16:33:21.258Z,12.37
2023-04-09T16:35:48.568Z,12.90
2023-04-09T16:38:15.946Z,14.27
2023-04-09T16:40:43.957Z,14.97
2023-04-09T16:43:11.674Z,15.50
2023-04-09T16:45:39.009Z,14.67
2023-04-09T16:48:11.620Z,15.70
2023-04-09T16:50:40.407Z,16.00
2023-04-09T16:53:08.598Z,14.80
2023-04-09T16:55:36.229Z,16.10
2023-04-09T16:58:03.458Z,15.00
2023-04-09T17:00:30.888Z,15.77
2023-04-09T17:02:58.115Z,16.27
2023-04-09T17:05:25.656Z,16.57
2023-04-09T17:07:53.673Z,15.00
2023-04-09T17:10:20.892Z,17.53
2023-04-09T17:12:48.597Z,17.53
2023-04-09T17:15:16.147Z,17.60
2023-04-09T17:17:44.758Z,16.63
2023-04-09T17:20:12.875Z,18.10
2023-04-09T17:22:40.178Z,17.93
2023-04-09T17:25:07.890Z,14.30
2023-04-09T17:27:34.976Z,17.00
2023-04-09T17:30:04.297Z,15.23
2023-04-09T17:32:31.580Z,17.10
2023-04-09T17:34:59.680Z,16.50
2023-04-09T17:37:29.836Z,15.77
2023-04-09T17:39:57.110Z,16.10
2023-04-09T17:42:24.647Z,16.23
2023-04-09T17:44:51.982Z,16.27
2023-04-09T17:47:19.219Z,15.57
2023-04-09T17:49:46.298Z,18.17
2023-04-09T17:52:14.752Z,17.10
2023-04-09T17:54:45.376Z,18.00
2023-04-09T17:57:12.732Z,17.17
2023-04-09T17:59:39.826Z,19.20
2023-04-09T18:02:07.457Z,19.20
2023-04-09T18:04:35.587Z,18.63
2023-04-09T18:07:03.937Z,16.93
2023-04-09T18:09:31.249Z,17.90
2023-04-09T18:12:00.161Z,19.20
2023-04-09T18:14:27.318Z,19.77
2023-04-09T18:16:54.458Z,20.50
2023-04-09T18:19:21.756Z,27.80
2023-04-09T18:21:48.977Z,25.50
2023-04-09T18:24:16.142Z,25.77
2023-04-09T18:26:43.226Z,24.23
2023-04-09T18:29:10.356Z,26.83
2023-04-09T18:31:37.495Z,26.30
2023-04-09T18:34:04.840Z,26.17
2023-04-09T18:36:31.914Z,25.40
2023-04-09T18:38:59.207Z,27.40
2023-04-09T18:41:27.164Z,32.57
2023-04-09T18:43:54.862Z,32.23
2023-04-09T18:46:23.011Z,36.93
2023-04-09T18:48:50.543Z,30.77
2023-04-09T18:51:19.627Z,43.10
2023-04-09T18:53:52.921Z,34.80
2023-04-09T18:56:21.146Z,30.20
2023-04-09T18:58:48.837Z,29.87
2023-04-09T19:01:17.502Z,29.10
2023-04-09T19:03:45.408Z,29.20
2023-04-09T19:06:15.189Z,28.13
2023-04-09T19:08:42.506Z,29.77
2023-04-09T19:11:09.816Z,34.47
2023-04-09T19:13:38.312Z,38.80
2023-04-09T19:16:09.729Z,35.30
2023-04-09T19:18:38.037Z,38.60
2023-04-09T19:21:08.733Z,40.93
2023-04-09T19:23:36.214Z,43.67
2023-04-09T19:26:05.570Z,43.63
2023-04-09T19:28:32.964Z,43.43
2023-04-09T19:31:02.835Z,38.27
2023-04-09T19:33:30.957Z,36.60
2023-04-09T19:36:01.524Z,36.23
2023-04-09T19:38:28.708Z,33.70
2023-04-09T19:40:55.904Z,44.10
2023-04-09T19:43:23.331Z,34.93
2023-04-09T19:45:50.737Z,30.00
2023-04-09T19:48:18.188Z,28.37
2023-04-09T19:50:46.208Z,29.57
2023-04-09T19:53:13.605Z,28.97
2023-04-09T19:55:41.471Z,27.00
2023-04-09T19:58:08.793Z,26.40
2023-04-09T20:00:36.147Z,26.30
2023-04-09T20:03:05.809Z,27.47
2023-04-09T20:05:33.460Z,28.13
2023-04-09T20:08:00.816Z,31.13
2023-04-09T20:10:28.131Z,35.07
2023-04-09T20:12:55.682Z,30.23
2023-04-09T20:15:23.048Z,28.90
2023-04-09T20:17:51.453Z,27.33
2023-04-09T20:20:20.099Z,29.77
2023-04-09T20:22:55.545Z,29.23
2023-04-09T20:25:24.872Z,26.47
2023-04-09T20:27:55.935Z,27.23
2023-04-09T20:30:23.198Z,28.27
2023-04-09T20:32:50.411Z,23.70
2023-04-09T20:35:17.662Z,25.10
2023-04-09T20:38:02.095Z,27.63
2023-04-09T20:40:30.831Z,25.60
2023-04-09T20:42:58.075Z,27.00
2023-04-09T20:45:25.325Z,29.63
2023-04-09T20:47:53.219Z,31.37
2023-04-09T20:50:20.521Z,31.00
2023-04-09T20:52:47.973Z,31.60
2023-04-09T20:55:18.048Z,29.17
2023-04-09T20:57:45.161Z,29.60
2023-04-09T21:00:13.114Z,31.03
2023-04-09T21:02:41.215Z,33.13
2023-04-09T21:05:21.753Z,31.27
2023-04-09T21:07:50.794Z,31.87
2023-04-09T21:10:18.225Z,31.30
2023-04-09T21:12:45.684Z,32.00
2023-04-09T21:15:12.836Z,33.73
2023-04-09T21:17:39.908Z,34.13
2023-04-09T21:20:08.702Z,33.33
2023-04-09T21:22:36.039Z,30.73
2023-04-09T21:25:03.618Z,33.47
2023-04-09T21:27:31.252Z,29.20
2023-04-09T21:29:58.802Z,28.73
2023-04-09T21:32:26.021Z,27.57
2023-04-09T21:34:53.422Z,31.63
2023-04-09T21:37:20.478Z,29.00
2023-04-09T21:39:48.840Z,26.17
2023-04-09T21:42:16.118Z,24.77
2023-04-09T21:44:43.166Z,26.40
2023-04-09T21:47:12.133Z,25.27
2023-04-09T21:49:40.699Z,22.87
2023-04-09T21:52:14.375Z,23.73
2023-04-09T21:54:43.493Z,24.93
2023-04-09T21:57:11.685Z,23.90
2023-04-09T21:59:41.067Z,22.90
2023-04-09T22:02:08.752Z,23.13
2023-04-09T22:04:36.169Z,23.20
2023-04-09T22:07:04.123Z,23.23
2023-04-09T22:09:31.606Z,24.50
2023-04-09T22:11:59.585Z,24.27
2023-04-09T22:14:29.381Z,24.87
2023-04-09T22:16:58.431Z,26.27
2023-04-09T22:19:26.598Z,25.67
2023-04-09T22:21:54.512Z,23.67
2023-04-09T22:24:29.907Z,23.43
2023-04-09T22:26:59.043Z,22.70
2023-04-09T22:29:27.765Z,24.30
2023-04-09T22:31:55.799Z,25.10
2023-04-09T22:34:23.018Z,24.23
2023-04-09T22:36:50.744Z,24.90
2023-04-09T22:39:18.025Z,24.87
2023-04-09T22:41:45.036Z,22.40
2023-04-09T22:44:12.190Z,25.07
2023-04-09T22:46:39.254Z,24.57
2023-04-09T22:49:06.638Z,21.80
2023-04-09T22:51:37.295Z,22.37
2023-04-09T22:54:05.775Z,21.37
2023-04-09T22:56:33.568Z,23.47
2023-04-09T22:59:00.860Z,20.80
2023-04-09T23:01:28.452Z,22.43
2023-04-09T23:03:55.996Z,23.17
2023-04-09T23:06:25.050Z,22.87
2023-04-09T23:08:52.312Z,22.70
2023-04-09T23:11:19.627Z,25.00
2023-04-09T23:13:46.694Z,22.50
2023-04-09T23:16:14.371Z,24.00
2023-04-09T23:18:41.524Z,24.37
2023-04-09T23:21:10.065Z,23.23
2023-04-09T23:23:39.009Z,22.40
2023-04-09T23:26:06.782Z,24.17
2023-04-09T23:28:33.975Z,22.87
2023-04-09T23:31:01.180Z,23.00
2023-04-09T23:33:28.471Z,22.90
2023-04-09T23:35:55.725Z,25.67
2023-04-09T23:38:22.931Z,25.30
2023-04-09T23:40:50.050Z,23.30
2023-04-09T23:43:17.429Z,21.60
2023-04-09T23:45:44.753Z,21.73
2023-04-09T23:48:12.656Z,20.13
2023-04-09T23:50:41.121Z,18.70
2023-04-09T23:53:08.866Z,19.80
2023-04-09T23:55:41.217Z,21.33
2023-04-09T23:58:09.545Z,21.60
